Time;durP1;ratioP1;P1;durP2;ratioP2;P2;SDS_P1;SDS_P2;PMS_P1;PMS_P2;Temp;Humidity;BMP_temperature;BMP_pressure;BME280_temperature;BME280_humidity;BME280_pressure;Samples;Min_cycle;Max_cycle;Signal;HPM_P1;HPM_P2
2022/09/24 00:01:22;;;;;;;12.68;10.77;;;;;;;11.40;100.00;100111.28;5038710;28;20198;-74
2022/09/24 00:03:51;;;;;;;15.45;10.35;;;;;;;11.43;100.00;100107.53;5034931;28;20222;-75
2022/09/24 00:06:18;;;;;;;11.88;9.73;;;;;;;11.42;100.00;100101.28;5041298;28;20202;-74
2022/09/24 00:08:45;;;;;;;12.57;10.43;;;;;;;11.41;100.00;100102.22;5038076;28;20240;-76
2022/09/24 00:11:13;;;;;;;11.68;9.48;;;;;;;11.39;100.00;100097.84;5040088;28;20363;-75
2022/09/24 00:13:41;;;;;;;17.08;11.05;;;;;;;11.40;100.00;100102.31;5039903;28;20221;-76
2022/09/24 00:16:09;;;;;;;12.27;9.88;;;;;;;11.33;100.00;100104.47;5036456;28;20240;-76
2022/09/24 00:18:36;;;;;;;11.43;9.25;;;;;;;11.27;100.00;100102.09;5036517;28;20225;-75
2022/09/24 00:21:12;;;;;;;13.98;10.00;;;;;;;11.30;100.00;100103.75;5036520;28;20199;-77
2022/09/24 00:23:38;;;;;;;17.30;9.48;;;;;;;11.30;100.00;100096.53;5029752;28;20201;-75
2022/09/24 00:28:51;;;;;;;10.65;9.40;;;;;;;11.30;100.00;100096.53;5032397;28;20233;-76
2022/09/24 00:31:18;;;;;;;16.08;9.48;;;;;;;11.35;100.00;100098.97;5034401;28;20679;-75
2022/09/24 00:33:44;;;;;;;11.27;9.85;;;;;;;11.35;100.00;100098.97;5034044;28;20205;-75
2022/09/24 00:36:13;;;;;;;14.25;9.10;;;;;;;11.34;100.00;100095.41;5033528;28;20198;-77
2022/09/24 00:38:40;;;;;;;12.05;9.90;;;;;;;11.32;100.00;100094.63;5033072;28;20218;-76
2022/09/24 00:41:06;;;;;;;13.52;10.00;;;;;;;11.30;100.00;100099.22;5033526;28;20194;-76
2022/09/24 00:43:35;;;;;;;12.38;9.32;;;;;;;11.24;100.00;100092.34;5034649;28;20201;-77
2022/09/24 00:46:08;;;;;;;10.35;9.23;;;;;;;11.19;100.00;100096.22;5035782;28;20221;-73
2022/09/24 00:48:35;;;;;;;15.27;9.57;;;;;;;11.02;100.00;100087.22;5035246;28;20217;-74
2022/09/24 00:51:02;;;;;;;12.80;10.23;;;;;;;11.00;100.00;100086.41;5038830;28;20202;-74
2022/09/24 00:53:32;;;;;;;11.98;9.25;;;;;;;10.95;100.00;100091.19;5039180;28;20212;-74
2022/09/24 00:56:01;;;;;;;11.20;9.73;;;;;;;10.79;100.00;100083.00;5035231;28;20198;-76
2022/09/24 00:58:29;;;;;;;13.60;10.30;;;;;;;10.89;100.00;100087.91;5033655;28;20218;-75
2022/09/24 01:01:00;;;;;;;14.43;10.25;;;;;;;11.00;100.00;100089.09;5034310;28;20682;-76
2022/09/24 01:03:30;;;;;;;13.77;10.25;;;;;;;10.88;100.00;100078.97;5035068;28;20201;-75
2022/09/24 01:05:56;;;;;;;14.75;10.30;;;;;;;10.87;100.00;100082.59;5032503;28;20222;-76
2022/09/24 01:08:23;;;;;;;12.90;11.15;;;;;;;10.85;100.00;100077.31;5034902;28;20234;-76
2022/09/24 01:11:07;;;;;;;15.52;10.65;;;;;;;10.94;100.00;100078.63;5036901;28;20199;-75
2022/09/24 01:14:03;;;;;;;10.20;9.10;;;;;;;10.92;100.00;100071.59;5030714;28;20204;-75
2022/09/24 01:16:40;;;;;;;10.15;8.88;;;;;;;10.85;100.00;100071.03;5030993;28;20233;-75
2022/09/24 01:19:27;;;;;;;11.20;9.23;;;;;;;10.82;100.00;100063.97;5031826;28;20218;-76
2022/09/24 01:21:57;;;;;;;13.90;10.68;;;;;;;10.79;100.00;100063.28;5028426;28;20582;-75
2022/09/24 01:24:43;;;;;;;11.80;9.60;;;;;;;10.76;100.00;100058.94;5032777;28;20700;-76
2022/09/24 01:27:16;;;;;;;13.93;10.52;;;;;;;10.68;100.00;100047.69;5040917;28;20315;-76
2022/09/24 01:30:04;;;;;;;13.60;10.77;;;;;;;10.56;100.00;100050.97;5035920;28;20714;-75
2022/09/24 01:32:36;;;;;;;12.95;9.93;;;;;;;10.53;100.00;100052.00;5034097;28;20278;-75
2022/09/24 01:35:09;;;;;;;14.30;10.25;;;;;;;10.38;100.00;100050.97;5028321;28;20206;-76
2022/09/24 01:37:40;;;;;;;12.90;9.98;;;;;;;10.34;100.00;100051.22;5032226;28;20218;-76
2022/09/24 01:40:09;;;;;;;12.82;9.93;;;;;;;10.33;100.00;100036.84;5033629;28;20209;-74
2022/09/24 01:42:37;;;;;;;13.70;11.07;;;;;;;10.35;100.00;100034.97;5029948;28;20206;-76
2022/09/24 01:45:06;;;;;;;14.90;11.10;;;;;;;10.33;100.00;100030.63;5033173;28;20224;-76
2022/09/24 01:47:38;;;;;;;22.05;10.95;;;;;;;10.28;100.00;100025.44;5031832;28;20233;-77
2022/09/24 01:50:06;;;;;;;16.73;10.50;;;;;;;10.19;100.00;100024.06;5033815;28;20197;-75
2022/09/24 01:52:38;;;;;;;11.73;10.52;;;;;;;10.20;100.00;100023.13;5033850;28;20204;-76
2022/09/24 01:55:07;;;;;;;15.50;10.02;;;;;;;10.17;100.00;100033.16;5030682;28;20194;-76
2022/09/24 01:57:38;;;;;;;21.15;10.52;;;;;;;10.11;100.00;100038.88;5031031;28;20228;-77
2022/09/24 02:00:10;;;;;;;13.35;10.80;;;;;;;9.99;100.00;100046.59;5032226;28;20193;-76
2022/09/24 02:02:44;;;;;;;12.75;10.93;;;;;;;9.79;100.00;100049.34;5028728;28;20794;-77
2022/09/24 02:05:16;;;;;;;12.13;9.82;;;;;;;9.73;100.00;100034.38;5040214;28;20214;-76
2022/09/24 02:07:50;;;;;;;12.15;10.88;;;;;;;9.72;100.00;100040.72;5041600;28;20721;-76
2022/09/24 02:10:20;;;;;;;11.70;10.50;;;;;;;9.72;100.00;100040.72;5037289;28;20230;-76
2022/09/24 02:12:51;;;;;;;11.20;9.77;;;;;;;9.73;100.00;100039.75;5037100;28;20201;-77
2022/09/24 02:15:24;;;;;;;10.88;9.85;;;;;;;9.68;100.00;100035.53;5034459;28;20636;-76
2022/09/24 02:17:55;;;;;;;12.90;10.52;;;;;;;9.65;100.00;100028.50;5033592;28;20305;-75
2022/09/24 02:20:25;;;;;;;11.82;10.50;;;;;;;9.71;100.00;100025.50;5033374;28;20656;-75
2022/09/24 02:22:55;;;;;;;15.52;10.35;;;;;;;9.58;100.00;100011.78;5032440;28;20348;-77
2022/09/24 02:25:28;;;;;;;13.88;9.40;;;;;;;9.58;100.00;100009.09;5033175;28;20220;-76
2022/09/24 02:27:55;;;;;;;12.43;9.52;;;;;;;9.47;100.00;100015.91;5031419;28;20225;-75
2022/09/24 02:30:23;;;;;;;13.85;10.30;;;;;;;9.40;100.00;100016.19;5031926;28;20247;-77
2022/09/24 02:32:50;;;;;;;14.48;10.40;;;;;;;9.36;100.00;100009.25;5029905;28;20214;-76
2022/09/24 02:35:16;;;;;;;14.20;10.55;;;;;;;9.17;100.00;100005.66;5034075;28;20790;-76
2022/09/24 02:37:44;;;;;;;12.70;9.80;;;;;;;9.24;100.00;100009.78;5032738;28;20228;-77
2022/09/24 02:40:13;;;;;;;14.70;10.40;;;;;;;9.21;100.00;100014.47;5034719;28;20199;-76
2022/09/24 02:42:41;;;;;;;14.32;10.63;;;;;;;9.22;100.00;100014.38;5037325;28;20286;-76
2022/09/24 02:45:08;;;;;;;12.60;11.35;;;;;;;9.26;100.00;100021.34;5037276;28;20724;-75
2022/09/24 02:47:36;;;;;;;12.60;10.43;;;;;;;9.24;100.00;100030.44;5028179;28;20231;-75
2022/09/24 02:50:04;;;;;;;12.70;11.40;;;;;;;9.12;100.00;100026.50;5034748;28;20196;-75
2022/09/24 02:52:30;;;;;;;17.08;11.85;;;;;;;8.99;100.00;100031.53;5035444;28;20212;-76
2022/09/24 02:54:57;;;;;;;13.32;11.93;;;;;;;8.92;100.00;100036.31;5032360;28;20211;-76
2022/09/24 02:57:23;;;;;;;15.30;12.65;;;;;;;8.80;100.00;100038.69;5032946;28;20231;-75
2022/09/24 02:59:50;;;;;;;16.30;13.15;;;;;;;8.76;100.00;100041.47;5033683;28;20208;-75
2022/09/24 03:02:16;;;;;;;13.45;10.52;;;;;;;8.78;100.00;100038.75;5030218;28;20568;-77
2022/09/24 03:04:45;;;;;;;11.38;10.18;;;;;;;8.75;100.00;100045.13;5030537;28;20227;-74
2022/09/24 03:07:13;;;;;;;14.35;11.90;;;;;;;8.73;100.00;100040.75;5031450;28;20568;-75
2022/09/24 03:09:39;;;;;;;13.55;10.32;;;;;;;8.68;100.00;100032.91;5031129;28;20201;-74
2022/09/24 03:12:06;;;;;;;15.93;10.18;;;;;;;8.67;100.00;100028.47;5029885;28;20616;-76
2022/09/24 03:14:32;;;;;;;12.75;10.55;;;;;;;8.65;100.00;100032.16;5032230;28;20202;-76
2022/09/24 03:16:59;;;;;;;13.93;11.02;;;;;;;8.61;100.00;100025.16;5032228;28;20212;-75
2022/09/24 03:19:25;;;;;;;15.88;10.55;;;;;;;8.68;100.00;100030.22;5029332;28;20693;-75
2022/09/24 03:21:53;;;;;;;13.35;10.52;;;;;;;8.76;100.00;100029.88;5030615;28;20210;-76
2022/09/24 03:24:20;;;;;;;14.82;11.20;;;;;;;8.80;100.00;100030.63;5034068;28;20214;-75
2022/09/24 03:26:46;;;;;;;15.57;9.98;;;;;;;8.77;100.00;100031.59;5032998;28;20246;-75
2022/09/24 03:29:13;;;;;;;14.48;9.98;;;;;;;8.71;100.00;100031.91;5030630;28;20227;-76
2022/09/24 03:31:38;;;;;;;14.73;10.90;;;;;;;8.64;100.00;100035.75;5031162;28;20203;-75
2022/09/24 03:34:05;;;;;;;11.93;10.40;;;;;;;8.65;100.00;100040.22;5031748;28;20205;-76
2022/09/24 03:36:31;;;;;;;12.35;9.93;;;;;;;8.66;100.00;100033.88;5031147;28;20216;-76
2022/09/24 03:38:59;;;;;;;14.73;10.35;;;;;;;8.75;100.00;100039.75;5031384;28;20220;-76
2022/09/24 03:41:27;;;;;;;12.75;10.20;;;;;;;8.83;100.00;100025.97;5039457;28;20209;-76
2022/09/24 03:43:53;;;;;;;12.60;11.25;;;;;;;8.87;100.00;100021.34;5038549;28;20276;-74
2022/09/24 03:46:20;;;;;;;10.77;9.50;;;;;;;8.88;100.00;100018.56;5025801;28;20220;-75
2022/09/24 03:48:48;;;;;;;12.45;10.73;;;;;;;8.74;100.00;100016.50;5035322;28;20236;-75
2022/09/24 03:51:17;;;;;;;13.13;9.70;;;;;;;8.86;100.00;100003.47;5029377;28;20684;-75
2022/09/24 03:53:44;;;;;;;13.30;10.45;;;;;;;9.02;100.00;99998.28;5030147;28;20209;-77
2022/09/24 03:56:12;;;;;;;11.27;10.10;;;;;;;9.00;100.00;100002.84;5033047;28;20196;-76
2022/09/24 03:58:40;;;;;;;11.82;10.50;;;;;;;9.12;100.00;100002.31;5031290;28;20731;-76
2022/09/24 04:01:08;;;;;;;12.70;10.65;;;;;;;9.10;100.00;99999.69;5031325;28;20257;-76
2022/09/24 04:03:35;;;;;;;11.00;9.57;;;;;;;9.18;100.00;100000.22;5031792;28;20202;-75
2022/09/24 04:06:02;;;;;;;12.35;10.45;;;;;;;9.13;100.00;99993.31;5032462;28;20619;-76
2022/09/24 04:08:30;;;;;;;13.07;10.23;;;;;;;9.08;100.00;99979.22;5031689;28;20252;-76
2022/09/24 04:10:57;;;;;;;12.27;10.95;;;;;;;8.88;100.00;99985.50;5031669;28;20200;-75
2022/09/24 04:13:25;;;;;;;14.57;10.75;;;;;;;8.91;100.00;99979.97;5030823;28;20665;-77
2022/09/24 04:15:52;;;;;;;11.82;10.25;;;;;;;8.97;100.00;99969.81;5030323;28;20191;-75
2022/09/24 04:18:19;;;;;;;13.18;10.38;;;;;;;8.94;100.00;99975.34;5031126;28;20691;-76
2022/09/24 04:20:45;;;;;;;10.10;9.10;;;;;;;8.92;100.00;99974.53;5029949;28;20199;-75
2022/09/24 04:23:12;;;;;;;12.30;10.38;;;;;;;8.93;100.00;99973.63;5031353;28;20199;-76
2022/09/24 04:25:40;;;;;;;11.98;10.57;;;;;;;8.90;100.00;99973.72;5031376;28;20220;-76
2022/09/24 04:28:08;;;;;;;13.30;10.70;;;;;;;8.99;100.00;99972.44;5031080;28;20229;-75
2022/09/24 04:30:37;;;;;;;13.07;10.98;;;;;;;8.97;100.00;99969.81;5030980;28;20196;-75
2022/09/24 04:33:03;;;;;;;12.68;10.93;;;;;;;8.89;100.00;99974.69;5028880;28;20211;-75
2022/09/24 04:35:33;;;;;;;13.02;10.73;;;;;;;8.90;100.00;99979.09;5031388;28;20582;-75
2022/09/24 04:37:59;;;;;;;13.55;11.20;;;;;;;8.90;100.00;99981.78;5030210;28;20286;-75
2022/09/24 04:40:27;;;;;;;16.83;11.02;;;;;;;8.87;100.00;99975.69;5030921;28;20249;-77
2022/09/24 04:42:54;;;;;;;14.30;11.00;;;;;;;8.81;100.00;99967.91;5028508;28;20204;-76
2022/09/24 04:45:23;;;;;;;13.38;10.95;;;;;;;8.81;100.00;99975.97;5031027;28;20612;-74
2022/09/24 04:47:56;;;;;;;15.68;10.90;;;;;;;8.79;100.00;99975.16;5041061;28;20584;-75
2022/09/24 04:50:23;;;;;;;11.45;10.10;;;;;;;8.75;100.00;99967.25;5047905;28;20238;-76
2022/09/24 04:52:50;;;;;;;16.38;10.55;;;;;;;8.63;100.00;99973.16;5041445;28;20633;-74
2022/09/24 04:55:16;;;;;;;12.23;10.23;;;;;;;8.73;100.00;99976.31;5039336;28;20209;-75
2022/09/24 04:57:44;;;;;;;12.50;9.90;;;;;;;8.81;100.00;99976.84;5038559;28;20304;-75
2022/09/24 05:00:14;;;;;;;13.45;10.23;;;;;;;8.84;100.00;99982.09;5033654;28;20207;-75
2022/09/24 05:02:41;;;;;;;11.43;10.32;;;;;;;8.79;100.00;99984.09;5034965;28;20205;-77
2022/09/24 05:05:10;;;;;;;11.35;10.13;;;;;;;8.77;100.00;99980.59;5034858;28;20281;-77
2022/09/24 05:07:36;;;;;;;11.75;10.55;;;;;;;8.76;100.00;99992.28;5026648;28;20216;-76
2022/09/24 05:10:05;;;;;;;11.60;10.25;;;;;;;8.69;100.00;99988.13;5032855;28;20201;-76
2022/09/24 05:12:32;;;;;;;10.95;9.73;;;;;;;8.69;100.00;99990.81;5034715;28;20249;-75
2022/09/24 05:14:58;;;;;;;11.10;9.95;;;;;;;8.74;100.00;99994.16;5037138;28;20199;-76
2022/09/24 05:17:25;;;;;;;14.18;10.35;;;;;;;8.74;100.00;100002.22;5047423;28;20210;-75
2022/09/24 05:19:52;;;;;;;12.57;9.93;;;;;;;8.69;100.00;100001.56;5058103;28;20213;-75
2022/09/24 05:22:20;;;;;;;12.00;9.55;;;;;;;8.62;100.00;99994.72;5057216;28;20183;-75
2022/09/24 05:24:46;;;;;;;12.35;11.05;;;;;;;8.59;100.00;99995.69;5056930;28;20248;-76
2022/09/24 05:27:12;;;;;;;11.45;10.27;;;;;;;8.53;100.00;99991.47;5057278;28;20225;-78
2022/09/24 05:29:40;;;;;;;11.13;9.93;;;;;;;8.38;100.00;99989.41;5052856;28;20219;-76
2022/09/24 05:32:08;;;;;;;17.25;11.05;;;;;;;8.43;100.00;99989.25;5049443;28;20230;-77
2022/09/24 05:34:35;;;;;;;12.30;10.98;;;;;;;8.46;100.00;99998.06;5041857;28;20210;-76
2022/09/24 05:37:02;;;;;;;12.80;10.85;;;;;;;8.51;100.00;100004.09;5045002;28;20207;-77
2022/09/24 05:39:31;;;;;;;12.40;11.10;;;;;;;8.63;100.00;100016.09;5032823;28;20202;-78
2022/09/24 05:41:58;;;;;;;17.75;10.63;;;;;;;8.65;100.00;100008.00;5030898;28;20207;-75
2022/09/24 05:44:24;;;;;;;13.40;10.93;;;;;;;8.66;100.00;100007.94;5033741;28;20213;-74
2022/09/24 05:46:52;;;;;;;13.27;11.90;;;;;;;8.87;100.00;100006.09;5027134;28;20227;-76
2022/09/24 05:49:19;;;;;;;13.18;11.38;;;;;;;9.13;100.00;100006.72;5033066;28;20208;-76
2022/09/24 05:51:47;;;;;;;14.80;11.50;;;;;;;9.35;100.00;100006.63;5032222;28;20196;-76
2022/09/24 05:54:15;;;;;;;14.68;10.77;;;;;;;9.53;100.00;100002.19;5033534;28;20196;-75
2022/09/24 05:56:43;;;;;;;11.82;10.63;;;;;;;9.77;100.00;100008.22;5032467;28;20206;-76
2022/09/24 05:59:10;;;;;;;14.00;10.23;;;;;;;10.00;100.00;100007.97;5032250;28;20228;-75
2022/09/24 06:01:40;;;;;;;11.75;10.63;;;;;;;10.19;100.00;100007.06;5037816;28;20189;-76
2022/09/24 06:04:07;;;;;;;14.63;10.40;;;;;;;10.36;100.00;100012.50;5037604;28;20206;-77
2022/09/24 06:06:36;;;;;;;12.68;10.85;;;;;;;10.30;100.00;100010.09;5039596;28;20229;-77
2022/09/24 06:09:03;;;;;;;17.42;12.13;;;;;;;10.49;100.00;100003.78;5036298;28;20248;-75
2022/09/24 06:11:33;;;;;;;17.17;12.70;;;;;;;10.71;100.00;100009.81;5035821;28;20206;-76
2022/09/24 06:14:03;;;;;;;11.63;10.10;;;;;;;10.75;100.00;99999.75;5029712;28;20225;-75
2022/09/24 06:16:32;;;;;;;14.85;10.48;;;;;;;10.84;100.00;100005.50;5033440;28;20288;-75
2022/09/24 06:18:58;;;;;;;12.40;11.10;;;;;;;10.61;100.00;100012.13;5034271;28;20601;-75
2022/09/24 06:21:25;;;;;;;27.27;20.77;;;;;;;10.80;100.00;100006.63;5035404;28;20212;-75
2022/09/24 06:23:51;;;;;;;16.00;13.38;;;;;;;10.99;100.00;100011.03;5037341;28;20277;-74
2022/09/24 06:26:18;;;;;;;24.02;18.17;;;;;;;11.06;100.00;100012.47;5048911;28;20225;-75
2022/09/24 06:28:45;;;;;;;15.00;12.70;;;;;;;11.18;100.00;100021.72;5039819;28;20230;-73
2022/09/24 06:31:13;;;;;;;13.20;11.80;;;;;;;11.19;100.00;100013.56;5036049;28;20201;-75
2022/09/24 06:33:39;;;;;;;12.35;11.05;;;;;;;11.18;100.00;100006.41;5034617;28;20197;-75
2022/09/24 06:36:07;;;;;;;16.67;10.65;;;;;;;11.28;100.00;100006.78;5040134;28;20293;-74
2022/09/24 06:38:34;;;;;;;11.75;10.52;;;;;;;11.34;100.00;100014.53;5026275;28;20281;-74
2022/09/24 06:41:02;;;;;;;14.18;12.43;;;;;;;11.38;100.00;100008.03;5038458;28;20202;-75
2022/09/24 06:43:29;;;;;;;12.57;10.05;;;;;;;11.39;100.00;100003.50;5042953;28;20205;-75
2022/09/24 06:45:56;;;;;;;15.02;11.55;;;;;;;11.55;100.00;100006.22;5040113;28;20222;-78
2022/09/24 06:48:25;;;;;;;12.48;11.15;;;;;;;11.69;100.00;100007.19;5039021;28;20310;-76
2022/09/24 06:50:53;;;;;;;13.75;11.30;;;;;;;11.63;100.00;100017.44;5037227;28;20229;-77
2022/09/24 06:53:20;;;;;;;15.85;12.27;;;;;;;11.94;100.00;100015.75;5038606;28;20198;-75
2022/09/24 06:55:46;;;;;;;18.85;12.98;;;;;;;12.22;100.00;100002.41;5037297;28;20293;-73
2022/09/24 06:58:15;;;;;;;16.23;12.65;;;;;;;12.54;100.00;100010.41;5034543;28;20253;-73
2022/09/24 07:00:42;;;;;;;12.80;11.50;;;;;;;13.04;100.00;100009.16;5036470;28;20237;-71
2022/09/24 07:03:13;;;;;;;14.77;13.20;;;;;;;13.50;100.00;99995.50;5037050;28;20200;-74
2022/09/24 07:05:41;;;;;;;14.00;12.50;;;;;;;13.86;100.00;99995.91;5034049;28;20203;-78
2022/09/24 07:08:08;;;;;;;14.82;12.95;;;;;;;14.74;100.00;100005.38;5034913;28;20220;-78
2022/09/24 07:10:34;;;;;;;13.75;12.25;;;;;;;15.47;100.00;99998.44;5033958;28;20203;-71
2022/09/24 07:13:02;;;;;;;16.20;12.50;;;;;;;15.57;100.00;99988.63;5036076;28;20209;-68
2022/09/24 07:15:28;;;;;;;15.07;12.15;;;;;;;15.47;100.00;99997.56;5035801;28;20234;-70
2022/09/24 07:17:56;;;;;;;13.35;11.98;;;;;;;15.36;100.00;99995.63;5033850;28;20304;-72
2022/09/24 07:20:22;;;;;;;11.95;10.48;;;;;;;15.37;100.00;99997.34;5031624;28;20202;-69
2022/09/24 07:22:50;;;;;;;13.25;11.18;;;;;;;15.20;100.00;100002.16;5030237;28;20205;-72
2022/09/24 07:25:17;;;;;;;13.30;11.57;;;;;;;15.20;100.00;100004.00;5031846;28;20589;-72
2022/09/24 07:27:43;;;;;;;14.93;12.85;;;;;;;15.12;100.00;100001.81;5028942;28;20714;-71
2022/09/24 07:30:11;;;;;;;13.55;10.88;;;;;;;15.48;100.00;100002.03;5032621;28;20191;-70
2022/09/24 07:32:37;;;;;;;14.00;11.15;;;;;;;15.57;100.00;100004.94;5032531;28;20284;-73
2022/09/24 07:35:05;;;;;;;18.75;13.23;;;;;;;15.71;100.00;100011.22;5030283;28;20204;-71
2022/09/24 07:37:32;;;;;;;27.33;22.73;;;;;;;15.82;100.00;100016.75;5028754;28;20279;-76
2022/09/24 07:40:00;;;;;;;18.15;12.70;;;;;;;16.31;100.00;99999.53;5032744;28;20969;-72
2022/09/24 07:42:26;;;;;;;12.93;11.60;;;;;;;17.13;100.00;100007.72;5011832;28;20209;-70
2022/09/24 07:44:55;;;;;;;17.92;10.73;;;;;;;18.02;92.80;100019.66;5027433;28;20663;-70
2022/09/24 07:47:22;;;;;;;11.95;10.82;;;;;;;19.17;81.49;100026.28;5030638;28;20226;-71
2022/09/24 07:49:48;;;;;;;14.70;11.25;;;;;;;19.63;74.04;100024.06;5007343;28;20209;-73
2022/09/24 07:52:15;;;;;;;11.38;10.20;;;;;;;19.96;71.63;100032.97;5031167;28;20198;-72
2022/09/24 07:54:41;;;;;;;12.20;10.93;;;;;;;20.36;68.36;100037.56;5029129;28;20741;-72
2022/09/24 07:57:12;;;;;;;12.00;10.90;;;;;;;20.98;65.07;100036.31;5025185;28;20449;-71
2022/09/24 07:59:39;;;;;;;11.07;10.00;;;;;;;21.46;60.18;100023.56;5031476;28;20441;-71
2022/09/24 08:02:13;;;;;;;11.43;10.23;;;;;;;21.98;59.16;100014.81;5031415;28;20440;-71
2022/09/24 08:04:40;;;;;;;11.07;10.07;;;;;;;21.22;61.73;100015.81;5030388;28;20492;-71
2022/09/24 08:07:06;;;;;;;14.13;9.80;;;;;;;21.07;62.92;100011.78;5029780;28;20484;-72
2022/09/24 08:09:33;;;;;;;13.37;9.70;;;;;;;21.21;61.50;100019.53;5031482;28;20946;-70
2022/09/24 08:12:00;;;;;;;12.67;8.70;;;;;;;21.13;61.06;100017.56;5031441;28;20535;-70
2022/09/24 08:14:28;;;;;;;11.47;10.50;;;;;;;20.68;64.10;100017.31;5030816;28;20464;-70
2022/09/24 08:16:54;;;;;;;11.93;10.00;;;;;;;20.55;64.38;100012.06;5031191;28;20498;-71
2022/09/24 08:19:21;;;;;;;11.70;9.97;;;;;;;20.35;66.10;100016.66;5013151;28;20530;-69
2022/09/24 08:21:47;;;;;;;11.27;10.27;;;;;;;20.23;66.02;100018.66;5031640;28;20433;-69
2022/09/24 08:24:14;;;;;;;10.93;9.83;;;;;;;19.85;67.80;100023.00;5025710;28;20445;-71
2022/09/24 08:26:41;;;;;;;13.63;11.33;;;;;;;19.65;69.90;100033.00;5017401;28;20571;-70
2022/09/24 08:29:08;;;;;;;19.33;17.17;;;;;;;19.29;71.74;100023.47;5035453;28;20472;-70
2022/09/24 08:31:36;;;;;;;29.83;26.83;;;;;;;18.87;74.39;100032.50;5033615;28;20532;-72
2022/09/24 08:34:02;;;;;;;15.27;12.93;;;;;;;18.15;79.29;100038.56;5034554;28;20725;-70
2022/09/24 08:36:28;;;;;;;16.17;14.47;;;;;;;17.89;82.19;100035.25;5037264;28;20523;-71
2022/09/24 08:38:55;;;;;;;13.80;12.40;;;;;;;18.01;81.97;100034.25;5034433;28;20479;-70
2022/09/24 08:41:53;;;;;;;17.60;11.40;;;;;;;17.75;83.28;100035.47;5034706;28;21083;-71
2022/09/24 08:47:24;;;;;;;18.67;16.60;;;;;;;18.46;87.15;100036.84;5032983;28;20232;-69
2022/09/24 08:50:02;;;;;;;16.93;14.10;;;;;;;20.12;70.97;100033.31;5033828;28;20194;-70
2022/09/24 08:52:40;;;;;;;14.43;11.40;;;;;;;21.91;62.23;100022.81;5017544;28;20426;-71
2022/09/24 08:55:13;;;;;;;11.80;9.60;;;;;;;24.04;51.33;100029.31;5014679;28;20425;-70
2022/09/24 08:57:49;;;;;;;24.30;21.73;;;;;;;24.87;49.20;100020.22;5034249;28;20460;-70
2022/09/24 09:00:16;;;;;;;161.03;144.03;;;;;;;26.70;45.26;100022.09;5035604;28;20517;-71
2022/09/24 09:02:52;;;;;;;32.97;29.47;;;;;;;28.42;40.94;100025.84;5016561;28;20444;-71
2022/09/24 09:05:27;;;;;;;12.80;11.50;;;;;;;27.15;41.92;100033.31;5034804;28;20447;-71
2022/09/24 09:08:01;;;;;;;9.83;8.80;;;;;;;24.57;46.07;100024.50;5040671;28;20788;-71
2022/09/24 09:10:31;;;;;;;11.17;10.10;;;;;;;23.60;50.16;100016.50;5038726;28;20460;-74
2022/09/24 09:13:05;;;;;;;14.93;13.40;;;;;;;24.59;49.22;100020.53;5034603;28;20451;-71
2022/09/24 09:15:35;;;;;;;11.03;10.00;;;;;;;25.95;45.55;100020.78;5035870;28;20421;-76
2022/09/24 09:18:12;;;;;;;11.13;9.70;;;;;;;26.82;42.16;100036.38;5018066;28;20516;-77
2022/09/24 09:20:41;;;;;;;11.47;9.43;;;;;;;27.47;41.32;100032.19;5034436;28;20456;-76
2022/09/24 09:23:15;;;;;;;9.90;8.90;;;;;;;27.52;40.71;100029.72;5035717;28;20463;-76
2022/09/24 09:25:51;;;;;;;10.07;8.13;;;;;;;27.10;41.00;100030.28;5035144;28;20789;-77
2022/09/24 09:28:18;;;;;;;9.70;8.90;;;;;;;27.11;40.74;100038.34;5034996;28;20537;-76
2022/09/24 09:30:57;;;;;;;8.87;8.07;;;;;;;26.13;42.87;100036.22;5034695;28;20433;-76
2022/09/24 09:33:39;;;;;;;8.40;7.60;;;;;;;27.13;40.76;100039.03;5036022;28;21031;-76
2022/09/24 09:36:29;;;;;;;9.47;8.67;;;;;;;25.99;42.87;100035.94;5038263;28;20490;-76
2022/09/24 09:39:04;;;;;;;8.17;7.47;;;;;;;26.77;41.92;100036.94;5035568;28;20476;-76
2022/09/24 09:41:38;;;;;;;8.03;7.33;;;;;;;28.04;39.49;100034.34;5040947;28;20420;-76
2022/09/24 09:44:13;;;;;;;7.27;6.67;;;;;;;28.09;39.25;100030.16;5043313;28;20491;-78
2022/09/24 09:46:46;;;;;;;8.60;7.70;;;;;;;28.27;38.89;100016.75;5040135;28;20564;-75
2022/09/24 09:49:14;;;;;;;13.03;11.73;;;;;;;28.04;39.46;100028.81;5039788;28;21021;-76
2022/09/24 09:51:42;;;;;;;8.33;7.60;;;;;;;27.44;39.41;100027.88;5036729;28;20447;-75
2022/09/24 09:54:10;;;;;;;9.53;8.73;;;;;;;27.73;40.17;100030.88;5035260;28;20810;-75
2022/09/24 09:56:42;;;;;;;8.63;7.83;;;;;;;26.75;41.58;100033.50;5035179;28;20526;-76
2022/09/24 09:59:18;;;;;;;8.10;7.30;;;;;;;28.47;39.00;100034.50;5035298;28;20468;-76
2022/09/24 10:01:47;;;;;;;8.20;7.50;;;;;;;30.50;35.83;100030.09;5018411;28;20459;-77
2022/09/24 10:04:38;;;;;;;8.73;7.27;;;;;;;31.66;33.63;100042.00;5034995;28;20461;-77
2022/09/24 10:07:09;;;;;;;6.77;6.27;;;;;;;31.19;33.51;100033.69;5035932;28;20504;-77
2022/09/24 10:09:36;;;;;;;7.97;7.17;;;;;;;30.34;34.06;100022.97;5034450;28;20417;-77
2022/09/24 10:12:15;;;;;;;7.17;6.40;;;;;;;32.96;31.59;100022.44;5033462;28;20475;-78
2022/09/24 10:14:42;;;;;;;6.20;5.57;;;;;;;34.05;29.91;100020.19;5040038;28;20445;-76
2022/09/24 10:17:13;;;;;;;6.20;5.60;;;;;;;32.68;31.27;100014.50;5038900;28;20501;-76
2022/09/24 10:19:46;;;;;;;6.80;6.10;;;;;;;31.83;32.40;100022.94;5036908;28;20421;-76
2022/09/24 10:22:20;;;;;;;6.00;5.40;;;;;;;32.83;31.10;100017.81;5032984;28;21031;-76
2022/09/24 10:24:46;;;;;;;5.77;5.27;;;;;;;32.98;30.71;100014.72;5033033;28;20526;-78
2022/09/24 10:27:21;;;;;;;10.07;9.00;;;;;;;34.37;29.31;100011.63;5036382;28;20859;-77
2022/09/24 10:32:31;;;;;;;6.67;6.17;;;;;;;32.56;31.21;100006.84;5033692;28;20455;-76
2022/09/24 10:35:01;;;;;;;7.13;5.87;;;;;;;28.75;35.90;99997.69;5035841;28;20429;-75
2022/09/24 10:37:28;;;;;;;6.60;5.90;;;;;;;26.49;40.08;100002.56;5036881;28;20463;-77
2022/09/24 10:39:58;;;;;;;7.37;6.77;;;;;;;25.92;41.36;100004.59;5034045;28;20441;-75
2022/09/24 10:42:27;;;;;;;8.00;6.50;;;;;;;25.77;41.87;99995.31;5033604;28;20465;-76
2022/09/24 10:44:57;;;;;;;6.73;6.13;;;;;;;25.67;41.81;99990.00;5035495;28;20510;-76
2022/09/24 10:47:32;;;;;;;7.17;6.50;;;;;;;26.43;40.63;99998.63;5034869;28;20484;-76
2022/09/24 10:50:20;;;;;;;6.27;5.67;;;;;;;26.96;39.67;100004.31;5032107;28;20431;-77
2022/09/24 10:52:52;;;;;;;6.00;5.40;;;;;;;27.71;38.50;99997.03;5030914;28;20457;-77
2022/09/24 10:55:36;;;;;;;6.83;6.33;;;;;;;27.68;38.26;99995.50;5034048;28;20429;-76
2022/09/24 10:58:07;;;;;;;8.40;6.03;;;;;;;27.08;39.27;99990.91;5033913;28;20456;-77
2022/09/24 11:00:45;;;;;;;6.60;5.90;;;;;;;27.38;38.76;99989.06;5032944;28;20452;-77
2022/09/24 11:03:28;;;;;;;7.40;6.70;;;;;;;27.17;38.79;99998.94;5033234;28;20465;-75
2022/09/24 11:06:01;;;;;;;7.57;6.50;;;;;;;26.97;39.10;99992.19;5033608;28;20867;-76
2022/09/24 11:08:50;;;;;;;9.43;6.83;;;;;;;26.68;39.89;99987.44;5033994;28;20871;-76
2022/09/24 11:11:30;;;;;;;7.90;7.27;;;;;;;26.74;40.12;99987.56;5032844;28;21041;-77
2022/09/24 11:14:05;;;;;;;8.10;7.30;;;;;;;26.54;39.99;99987.16;5033172;28;20490;-76
2022/09/24 11:16:58;;;;;;;10.40;8.43;;;;;;;26.03;39.93;99980.38;5036649;28;20429;-76
2022/09/24 11:19:41;;;;;;;8.03;6.90;;;;;;;25.97;40.07;99976.47;4957099;29;20486;-78
2022/09/24 11:22:13;;;;;;;7.80;6.50;;;;;;;26.03;39.86;99972.09;4958349;29;20521;-76
2022/09/24 11:24:56;;;;;;;8.43;7.53;;;;;;;25.44;40.57;99966.97;4956628;29;20452;-75
2022/09/24 11:27:47;;;;;;;9.07;7.30;;;;;;;25.11;41.74;99961.50;4946642;29;20587;-77
2022/09/24 11:30:17;;;;;;;8.70;7.20;;;;;;;25.13;42.08;99960.28;4954080;29;20451;-78
2022/09/24 11:33:14;;;;;;;8.20;7.40;;;;;;;25.82;41.32;99959.75;4956897;29;20459;-76